Time,TemperatureF,DewpointF,PressureIn,WindDirection,WindDirectionDegrees,WindSpeedMPH,WindSpeedGustMPH,Humidity,HourlyPrecipIn,Conditions,Clouds,dailyrainin,SoftwareType,DateUTC
2013-04-10 00:02:00,-999.0,-99.9,29.63,WSW,252,3.0,6.0,-999,-99.99,,,-99.99,,2013-04-10 08:02:00,
2013-04-10 00:22:00,-999.0,-99.9,29.63,NW,307,5.0,9.0,-999,-99.99,,,-99.99,,2013-04-10 08:22:00,
2013-04-10 00:32:00,-999.0,-99.9,29.64,NW,325,5.0,8.0,-999,-99.99,,,-99.99,,2013-04-10 08:32:00,
2013-04-10 00:52:00,-999.0,-99.9,29.64,NNW,328,11.0,20.0,-999,-99.99,,,-99.99,,2013-04-10 08:52:00,
2013-04-10 01:02:00,-999.0,-99.9,29.64,NW,317,13.0,20.0,-999,-99.99,,,-99.99,,2013-04-10 09:02:00,
2013-04-10 01:12:00,-1.0,-99.9,29.64,WNW,297,15.0,18.0,-999,-99.99,,,-99.99,,2013-04-10 09:12:00,
2013-04-10 01:22:00,-999.0,-99.9,29.65,NNW,343,16.0,21.0,-999,-99.99,,,-99.99,,2013-04-10 09:22:00,
2013-04-10 01:33:00,-999.0,-99.9,29.64,NNW,341,19.0,22.0,-999,-99.99,,,-99.99,,2013-04-10 09:33:00,
2013-04-10 01:53:00,-999.0,-99.9,29.65,NNW,327,20.0,25.0,-999,-99.99,,,-99.99,,2013-04-10 09:53:00,
2013-04-10 02:03:00,-999.0,-99.9,29.66,North,-999,17.0,23.0,-999,-99.99,,,-99.99,,2013-04-10 10:03:00,
2013-04-10 02:13:00,-999.0,-99.9,29.66,North,-999,16.0,22.0,-999,-99.99,,,-99.99,,2013-04-10 10:13:00,
2013-04-10 02:23:00,-999.0,-99.9,29.66,North,350,19.0,23.0,-999,-99.99,,,-99.99,,2013-04-10 10:23:00,
2013-04-10 02:33:00,-999.0,-99.9,29.66,North,1,14.0,20.0,-999,-99.99,,,-99.99,,2013-04-10 10:33:00,
2013-04-10 02:53:00,-999.0,-99.9,29.67,NNW,335,10.0,14.0,-999,-99.99,,,-99.99,,2013-04-10 10:53:00,
2013-04-10 03:03:00,-999.0,-99.9,29.67,NNW,348,8.0,11.0,-999,-99.99,,,-99.99,,2013-04-10 11:03:00,
2013-04-10 03:22:00,-999.0,-99.9,29.67,North,349,13.0,19.0,-999,-99.99,,,-99.99,,2013-04-10 11:22:00,
2013-04-10 03:32:00,-999.0,-99.9,29.67,North,356,15.0,18.0,-999,-99.99,,,-99.99,,2013-04-10 11:32:00,
2013-04-10 03:42:00,-999.0,-99.9,29.67,North,357,15.0,21.0,-999,-99.99,,,-99.99,,2013-04-10 11:42:00,
2013-04-10 04:03:00,-999.0,-99.9,29.67,North,3,14.0,15.0,-999,-99.99,,,-99.99,,2013-04-10 12:03:00,
2013-04-10 04:23:00,-999.0,-99.9,29.67,North,355,15.0,17.0,-999,-99.99,,,-99.99,,2013-04-10 12:23:00,
2013-04-10 04:33:00,-999.0,-99.9,29.67,NNW,339,19.0,21.0,-999,-99.99,,,-99.99,,2013-04-10 12:33:00,
2013-04-10 04:43:00,-999.0,-99.9,29.67,NNW,334,19.0,22.0,-999,-99.99,,,-99.99,,2013-04-10 12:43:00,
2013-04-10 04:52:00,-999.0,-99.9,29.67,NNW,338,18.0,22.0,-999,-99.99,,,-99.99,,2013-04-10 12:52:00,
2013-04-10 05:02:00,-999.0,-99.9,29.67,NNW,336,19.0,23.0,-999,-99.99,,,-99.99,,2013-04-10 13:02:00,
2013-04-10 05:23:00,-999.0,-99.9,29.67,NNW,332,16.0,20.0,-999,-99.99,,,-99.99,,2013-04-10 13:23:00,
2013-04-10 05:33:00,-999.0,-99.9,29.67,NW,325,16.0,18.0,-999,-99.99,,,-99.99,,2013-04-10 13:33:00,
2013-04-10 06:02:00,-999.0,-99.9,29.67,NNW,329,19.0,21.0,-999,-99.99,,,-99.99,,2013-04-10 14:02:00,
2013-04-10 06:13:00,-999.0,-99.9,29.67,NNW,345,14.0,22.0,-999,-99.99,,,-99.99,,2013-04-10 14:13:00,
2013-04-10 06:33:00,-999.0,-99.9,29.67,NNW,345,16.0,18.0,-999,-99.99,,,-99.99,,2013-04-10 14:33:00,
2013-04-10 06:52:00,-999.0,-99.9,29.68,NNW,336,13.0,17.0,-999,-99.99,,,-99.99,,2013-04-10 14:52:00,
2013-04-10 07:03:00,-999.0,-99.9,29.68,NNW,328,12.0,15.0,-999,-99.99,,,-99.99,,2013-04-10 15:03:00,
2013-04-10 07:12:00,-999.0,-99.9,29.68,NW,322,12.0,14.0,-999,-99.99,,,-99.99,,2013-04-10 15:12:00,
2013-04-10 07:23:00,-999.0,-99.9,29.68,NNW,327,12.0,16.0,-999,-99.99,,,-99.99,,2013-04-10 15:23:00,
2013-04-10 07:33:00,-999.0,-99.9,29.69,NNW,342,11.0,14.0,-999,-99.99,,,-99.99,,2013-04-10 15:33:00,
2013-04-10 07:43:00,-2.0,-99.9,29.69,NNW,339,10.0,13.0,-999,-99.99,,,-99.99,,2013-04-10 15:43:00,
2013-04-10 07:53:00,-999.0,-99.9,29.69,NNW,334,10.0,13.0,-999,-99.99,,,-99.99,,2013-04-10 15:53:00,
2013-04-10 08:03:00,-999.0,-99.9,29.69,NW,315,5.0,9.0,-999,-99.99,,,-99.99,,2013-04-10 16:03:00,
2013-04-10 08:13:00,-4.0,-99.9,29.69,NW,319,6.0,7.0,-999,-99.99,,,-99.99,,2013-04-10 16:13:00,
2013-04-10 08:23:00,-999.0,-99.9,29.70,NW,314,6.0,7.0,-999,-99.99,,,-99.99,,2013-04-10 16:23:00,
2013-04-10 08:34:00,-999.0,-99.9,29.70,NW,306,6.0,8.0,-999,-99.99,,,-99.99,,2013-04-10 16:34:00,
2013-04-10 08:43:00,-999.0,-99.9,29.70,NW,310,9.0,10.0,-999,-99.99,,,-99.99,,2013-04-10 16:43:00,
2013-04-10 08:53:00,-4.0,-99.9,29.70,NW,314,8.0,10.0,-999,-99.99,,,-99.99,,2013-04-10 16:53:00,
2013-04-10 09:03:00,-999.0,-99.9,29.70,NNW,331,6.0,7.0,-999,-99.99,,,-99.99,,2013-04-10 17:03:00,
2013-04-10 09:13:00,-2.0,-99.9,29.71,NNW,346,5.0,7.0,-999,-99.99,,,-99.99,,2013-04-10 17:13:00,
2013-04-10 09:23:00,-999.0,-99.9,29.71,NNW,341,6.0,8.0,-999,-99.99,,,-99.99,,2013-04-10 17:23:00,
2013-04-10 09:34:00,-999.0,-99.9,29.72,NNW,343,5.0,6.0,-999,-99.99,,,-99.99,,2013-04-10 17:34:00,
2013-04-10 09:43:00,-999.0,-99.9,29.72,NNW,336,6.0,8.0,-999,-99.99,,,-99.99,,2013-04-10 17:43:00,
2013-04-10 09:53:00,-999.0,-99.9,29.72,NNW,346,8.0,9.0,-999,-99.99,,,-99.99,,2013-04-10 17:53:00,
2013-04-10 10:03:00,-999.0,-99.9,29.72,NNW,344,8.0,9.0,-999,-99.99,,,-99.99,,2013-04-10 18:03:00,
2013-04-10 10:12:00,-2.0,-99.9,29.73,NNW,340,6.0,8.0,-999,-99.99,,,-99.99,,2013-04-10 18:12:00,
2013-04-10 10:23:00,-999.0,-99.9,29.73,NW,318,4.0,6.0,-999,-99.99,,,-99.99,,2013-04-10 18:23:00,
2013-04-10 10:33:00,-999.0,-99.9,29.73,North,3,8.0,9.0,-999,-99.99,,,-99.99,,2013-04-10 18:33:00,
2013-04-10 10:43:00,1.0,-99.9,29.74,North,4,5.0,8.0,-999,-99.99,,,-99.99,,2013-04-10 18:43:00,
2013-04-10 10:53:00,-999.0,-99.9,29.74,NNW,345,8.0,10.0,-999,-99.99,,,-99.99,,2013-04-10 18:53:00,
2013-04-10 11:03:00,-999.0,-99.9,29.75,NW,316,6.0,7.0,-999,-99.99,,,-99.99,,2013-04-10 19:03:00,
2013-04-10 11:22:00,-999.0,-99.9,29.75,NW,309,4.0,5.0,-999,-99.99,,,-99.99,,2013-04-10 19:22:00,
2013-04-10 11:33:00,-999.0,-99.9,29.76,West,272,5.0,6.0,-999,-99.99,,,-99.99,,2013-04-10 19:33:00,
2013-04-10 11:53:00,-999.0,-99.9,29.76,West,279,6.0,7.0,-999,-99.99,,,-99.99,,2013-04-10 19:53:00,
2013-04-10 12:03:00,-999.0,-99.9,29.76,West,277,5.0,6.0,-999,-99.99,,,-99.99,,2013-04-10 20:03:00,
2013-04-10 12:12:00,-999.0,-99.9,29.77,West,264,3.0,3.0,-999,-99.99,,,-99.99,,2013-04-10 20:12:00,
2013-04-10 12:23:00,-999.0,-99.9,29.77,WNW,289,4.0,6.0,-999,-99.99,,,-99.99,,2013-04-10 20:23:00,
2013-04-10 12:33:00,-999.0,-99.9,29.77,WNW,300,1.0,4.0,-999,-99.99,,,-99.99,,2013-04-10 20:33:00,
2013-04-10 12:43:00,-999.0,-99.9,29.77,WNW,300,1.0,4.0,-999,-99.99,,,-99.99,,2013-04-10 20:43:00,
2013-04-10 12:53:00,-999.0,-99.9,29.78,ENE,77,3.0,3.0,-999,-99.99,,,-99.99,,2013-04-10 20:53:00,
2013-04-10 13:03:00,3.0,-99.9,29.78,ESE,110,5.0,6.0,-999,-99.99,,,-99.99,,2013-04-10 21:03:00,
2013-04-10 13:13:00,3.0,-99.9,29.78,ESE,110,5.0,6.0,-999,-99.99,,,-99.99,,2013-04-10 21:13:00,
2013-04-10 13:22:00,-999.0,-99.9,29.80,ESE,111,5.0,6.0,-999,-99.99,,,-99.99,,2013-04-10 21:22:00,
2013-04-10 13:33:00,-999.0,-99.9,29.80,ESE,106,4.0,5.0,-999,-99.99,,,-99.99,,2013-04-10 21:33:00,
2013-04-10 13:43:00,5.0,-99.9,29.80,East,99,3.0,5.0,-999,-99.99,,,-99.99,,2013-04-10 21:43:00,
2013-04-10 13:53:00,-999.0,-99.9,29.81,ESE,109,3.0,4.0,-999,-99.99,,,-99.99,,2013-04-10 21:53:00,
2013-04-10 14:03:00,-999.0,-99.9,29.81,SSE,159,3.0,3.0,-999,-99.99,,,-99.99,,2013-04-10 22:03:00,
2013-04-10 14:13:00,6.0,-99.9,29.82,SSE,168,3.0,4.0,-999,-99.99,,,-99.99,,2013-04-10 22:13:00,
2013-04-10 14:23:00,-999.0,-99.9,29.83,SSE,162,4.0,5.0,-999,-99.99,,,-99.99,,2013-04-10 22:23:00,
2013-04-10 14:34:00,-999.0,-99.9,29.83,SSE,154,3.0,4.0,-999,-99.99,,,-99.99,,2013-04-10 22:34:00,
2013-04-10 14:43:00,-999.0,-99.9,29.84,SSE,153,4.0,5.0,-999,-99.99,,,-99.99,,2013-04-10 22:43:00,
2013-04-10 14:53:00,-999.0,-99.9,29.84,SSE,163,3.0,4.0,-999,-99.99,,,-99.99,,2013-04-10 22:53:00,
2013-04-10 15:03:00,-999.0,-99.9,29.85,SSE,149,4.0,4.0,-999,-99.99,,,-99.99,,2013-04-10 23:03:00,
2013-04-10 15:12:00,8.0,-99.9,29.85,East,101,2.0,4.0,-999,-99.99,,,-99.99,,2013-04-10 23:12:00,
2013-04-10 15:22:00,-999.0,-99.9,29.85,SSE,165,2.0,3.0,-999,-99.99,,,-99.99,,2013-04-10 23:22:00,
2013-04-10 15:33:00,-999.0,-99.9,29.85,ENE,68,5.0,7.0,-999,-99.99,,,-99.99,,2013-04-10 23:33:00,
2013-04-10 15:43:00,7.0,-99.9,29.85,ENE,76,5.0,9.0,-999,-99.99,,,-99.99,,2013-04-10 23:43:00,
2013-04-10 15:53:00,-999.0,-99.9,29.86,NE,47,4.0,8.0,-999,-99.99,,,-99.99,,2013-04-10 23:53:00,
2013-04-10 16:02:00,-999.0,-99.9,29.86,ENE,58,4.0,8.0,-999,-99.99,,,-99.99,,2013-04-11 00:02:00,
2013-04-10 16:13:00,8.0,-99.9,29.87,ENE,63,2.0,6.0,-999,-99.99,,,-99.99,,2013-04-11 00:13:00,
2013-04-10 16:23:00,-999.0,-99.9,29.87,NNE,31,3.0,7.0,-999,-99.99,,,-99.99,,2013-04-11 00:23:00,
2013-04-10 16:32:00,-999.0,-99.9,29.88,NE,34,3.0,6.0,-999,-99.99,,,-99.99,,2013-04-11 00:32:00,
2013-04-10 16:43:00,9.0,-99.9,29.88,NE,37,4.0,7.0,-999,-99.99,,,-99.99,,2013-04-11 00:43:00,
2013-04-10 16:53:00,-999.0,-99.9,29.88,NE,53,8.0,10.0,-999,-99.99,,,-99.99,,2013-04-11 00:53:00,
2013-04-10 17:02:00,-999.0,-99.9,29.88,ENE,58,4.0,8.0,-999,-99.99,,,-99.99,,2013-04-11 01:02:00,
2013-04-10 17:12:00,-999.0,-99.9,29.89,ENE,75,2.0,4.0,-999,-99.99,,,-99.99,,2013-04-11 01:12:00,
2013-04-10 17:22:00,10.0,-99.9,29.89,ESE,111,2.0,6.0,-999,-99.99,,,-99.99,,2013-04-11 01:22:00,
2013-04-10 17:33:00,-999.0,-99.9,29.90,SE,139,4.0,6.0,-999,-99.99,,,-99.99,,2013-04-11 01:33:00,
2013-04-10 17:42:00,8.0,-99.9,29.90,SSE,160,4.0,6.0,-999,-99.99,,,-99.99,,2013-04-11 01:42:00,
2013-04-10 17:52:00,-999.0,-99.9,29.91,SSE,160,5.0,6.0,-999,-99.99,,,-99.99,,2013-04-11 01:52:00,
2013-04-10 18:03:00,-999.0,-99.9,29.91,SSE,164,5.0,6.0,-999,-99.99,,,-99.99,,2013-04-11 02:03:00,
2013-04-10 18:13:00,-999.0,-99.9,29.91,SSE,166,4.0,6.0,-999,-99.99,,,-99.99,,2013-04-11 02:13:00,
2013-04-10 18:22:00,-999.0,-99.9,29.92,South,170,4.0,5.0,-999,-99.99,,,-99.99,,2013-04-11 02:22:00,
2013-04-10 18:32:00,-999.0,-99.9,29.92,SSE,159,4.0,5.0,-999,-99.99,,,-99.99,,2013-04-11 02:32:00,
2013-04-10 18:42:00,-999.0,-99.9,29.92,SSE,159,4.0,5.0,-999,-99.99,,,-99.99,,2013-04-11 02:42:00,
2013-04-10 18:53:00,-999.0,-99.9,29.93,South,190,3.0,4.0,-999,-99.99,,,-99.99,,2013-04-11 02:53:00,
2013-04-10 19:02:00,-999.0,-99.9,29.93,SSW,192,4.0,5.0,-999,-99.99,,,-99.99,,2013-04-11 03:02:00,
2013-04-10 19:12:00,9.0,-99.9,29.93,South,186,2.0,4.0,-999,-99.99,,,-99.99,,2013-04-11 03:12:00,
2013-04-10 19:22:00,-999.0,-99.9,29.93,SSE,167,3.0,4.0,-999,-99.99,,,-99.99,,2013-04-11 03:22:00,
2013-04-10 19:33:00,-999.0,-99.9,29.94,South,184,2.0,4.0,-999,-99.99,,,-99.99,,2013-04-11 03:33:00,
2013-04-10 19:43:00,8.0,-99.9,29.94,South,183,3.0,4.0,-999,-99.99,,,-99.99,,2013-04-11 03:43:00,
2013-04-10 19:54:00,-999.0,-99.9,29.95,SSW,201,3.0,4.0,-999,-99.99,,,-99.99,,2013-04-11 03:54:00,
2013-04-10 20:03:00,-999.0,-99.9,29.95,SW,216,3.0,4.0,-999,-99.99,,,-99.99,,2013-04-11 04:03:00,
2013-04-10 20:13:00,8.0,-99.9,29.96,South,182,2.0,4.0,-999,-99.99,,,-99.99,,2013-04-11 04:13:00,
2013-04-10 20:23:00,-999.0,-99.9,29.96,SW,216,3.0,4.0,-999,-99.99,,,-99.99,,2013-04-11 04:23:00,
2013-04-10 20:33:00,-999.0,-99.9,29.96,SW,235,3.0,4.0,-999,-99.99,,,-99.99,,2013-04-11 04:33:00,
2013-04-10 20:43:00,9.0,-99.9,29.96,WSW,238,2.0,3.0,-999,-99.99,,,-99.99,,2013-04-11 04:43:00,
2013-04-10 20:53:00,-999.0,-99.9,29.97,WSW,251,5.0,5.0,-999,-99.99,,,-99.99,,2013-04-11 04:53:00,
2013-04-10 21:03:00,-999.0,-99.9,29.98,WSW,241,1.0,3.0,-999,-99.99,,,-99.99,,2013-04-11 05:03:00,
2013-04-10 21:13:00,-999.0,-99.9,29.98,West,274,3.0,3.0,-999,-99.99,,,-99.99,,2013-04-11 05:13:00,
2013-04-10 21:23:00,-999.0,-99.9,29.98,West,263,4.0,5.0,-999,-99.99,,,-99.99,,2013-04-11 05:23:00,
2013-04-10 21:32:00,-999.0,-99.9,29.99,NW,318,2.0,2.0,-999,-99.99,,,-99.99,,2013-04-11 05:32:00,
2013-04-10 21:42:00,7.0,-99.9,29.99,NNW,337,2.0,2.0,-999,-99.99,,,-99.99,,2013-04-11 05:42:00,
2013-04-10 21:52:00,-999.0,-99.9,29.99,NNW,332,3.0,4.0,-999,-99.99,,,-99.99,,2013-04-11 05:52:00,
2013-04-10 22:02:00,-999.0,-99.9,30.00,NE,39,5.0,6.0,-999,-99.99,,,-99.99,,2013-04-11 06:02:00,
2013-04-10 22:12:00,7.0,-99.9,30.00,NNE,12,5.0,6.0,-999,-99.99,,,-99.99,,2013-04-11 06:12:00,
2013-04-10 22:22:00,-999.0,-99.9,30.01,NNE,28,7.0,9.0,-999,-99.99,,,-99.99,,2013-04-11 06:22:00,
2013-04-10 22:32:00,-999.0,-99.9,30.01,NE,39,9.0,11.0,-999,-99.99,,,-99.99,,2013-04-11 06:32:00,
2013-04-10 22:42:00,5.0,-99.9,30.01,NE,47,10.0,11.0,-999,-99.99,,,-99.99,,2013-04-11 06:42:00,
2013-04-10 22:53:00,-999.0,-99.9,30.02,NE,45,9.0,11.0,-999,-99.99,,,-99.99,,2013-04-11 06:53:00,
2013-04-10 23:02:00,-999.0,-99.9,30.02,NE,55,8.0,10.0,-999,-99.99,,,-99.99,,2013-04-11 07:02:00,
2013-04-10 23:12:00,4.0,-99.9,30.02,ENE,61,7.0,9.0,-999,-99.99,,,-99.99,,2013-04-11 07:12:00,
2013-04-10 23:22:00,-999.0,-99.9,30.03,ENE,62,8.0,8.0,-999,-99.99,,,-99.99,,2013-04-11 07:22:00,
2013-04-10 23:32:00,-999.0,-99.9,30.03,NE,49,8.0,10.0,-999,-99.99,,,-99.99,,2013-04-11 07:32:00,
2013-04-10 23:43:00,-999.0,-99.9,30.04,NE,50,8.0,10.0,-999,-99.99,,,-99.99,,2013-04-11 07:43:00,
2013-04-10 23:52:00,4.0,-99.9,30.04,NE,37,8.0,9.0,-999,-99.99,,,-99.99,,2013-04-11 07:52:00,